createdAt,value
2022-08-26T00:02:30.522Z,23.11
2022-08-26T00:05:00.566Z,23.08
2022-08-26T00:07:30.441Z,23.06
2022-08-26T00:10:00.755Z,23.02
2022-08-26T00:12:36.045Z,23.02
2022-08-26T00:15:03.822Z,23.01
2022-08-26T00:17:34.357Z,23.00
2022-08-26T00:20:06.477Z,23.00
2022-08-26T00:22:37.083Z,22.98
2022-08-26T00:25:07.764Z,22.95
2022-08-26T00:27:39.431Z,22.94
2022-08-26T00:30:13.006Z,22.93
2022-08-26T00:32:44.336Z,22.94
2022-08-26T00:35:15.132Z,22.93
2022-08-26T00:37:51.038Z,22.91
2022-08-26T00:40:26.027Z,22.91
2022-08-26T00:42:56.505Z,22.89
2022-08-26T00:45:27.634Z,22.86
2022-08-26T00:48:01.764Z,22.83
2022-08-26T00:50:37.841Z,22.74
2022-08-26T00:53:11.221Z,22.71
2022-08-26T00:55:40.943Z,22.65
2022-08-26T00:58:10.182Z,22.60
2022-08-26T01:00:40.700Z,22.56
2022-08-26T01:03:12.608Z,22.53
2022-08-26T01:05:42.801Z,22.50
2022-08-26T01:08:11.929Z,22.42
2022-08-26T01:10:42.934Z,22.37
2022-08-26T01:13:14.196Z,22.32
2022-08-26T01:15:48.223Z,22.30
2022-08-26T01:18:18.376Z,22.33
2022-08-26T01:21:13.169Z,22.31
2022-08-26T01:23:48.458Z,22.29
2022-08-26T01:26:32.760Z,22.26
2022-08-26T01:29:04.234Z,22.27
2022-08-26T01:31:42.736Z,22.23
2022-08-26T01:34:22.858Z,22.23
2022-08-26T01:36:55.654Z,22.21
2022-08-26T01:39:26.394Z,22.17
2022-08-26T01:41:57.671Z,22.13
2022-08-26T01:44:31.994Z,22.12
2022-08-26T01:47:02.677Z,22.15
2022-08-26T01:49:35.598Z,22.18
2022-08-26T01:52:06.127Z,22.17
2022-08-26T01:54:36.414Z,22.19
2022-08-26T01:57:07.728Z,22.20
2022-08-26T01:59:36.954Z,22.19
2022-08-26T02:02:06.941Z,22.21
2022-08-26T02:04:44.562Z,22.20
2022-08-26T02:07:15.202Z,22.17
2022-08-26T02:09:48.341Z,22.16
2022-08-26T02:12:19.522Z,22.12
2022-08-26T02:14:53.490Z,22.05
2022-08-26T02:17:30.567Z,22.02
2022-08-26T02:20:00.309Z,22.02
2022-08-26T02:22:30.767Z,21.97
2022-08-26T02:25:03.408Z,21.87
2022-08-26T02:27:35.306Z,21.81
2022-08-26T02:32:43.625Z,21.77
2022-08-26T02:35:14.157Z,21.72
2022-08-26T02:37:46.479Z,21.67
2022-08-26T02:40:21.696Z,21.62
2022-08-26T02:42:53.168Z,21.61
2022-08-26T02:45:24.244Z,21.58
2022-08-26T02:47:56.317Z,21.52
2022-08-26T02:50:26.592Z,21.47
2022-08-26T02:52:55.562Z,21.46
2022-08-26T02:55:26.261Z,21.44
2022-08-26T02:57:56.565Z,21.41
2022-08-26T03:00:27.206Z,21.42
2022-08-26T03:02:57.947Z,21.40
2022-08-26T03:05:28.237Z,21.40
2022-08-26T03:07:58.176Z,21.40
2022-08-26T03:10:31.997Z,21.39
2022-08-26T03:13:05.381Z,21.39
2022-08-26T03:15:36.991Z,21.41
2022-08-26T03:18:07.736Z,21.39
2022-08-26T03:20:37.443Z,21.34
2022-08-26T03:23:07.578Z,21.32
2022-08-26T03:25:39.892Z,21.32
2022-08-26T03:28:09.697Z,21.34
2022-08-26T03:30:45.515Z,21.34
2022-08-26T03:33:11.522Z,21.34
2022-08-26T03:35:41.384Z,21.33
2022-08-26T03:38:11.650Z,21.34
2022-08-26T03:40:42.931Z,21.33
2022-08-26T03:43:13.379Z,21.32
2022-08-26T03:45:42.975Z,21.28
2022-08-26T03:48:14.387Z,21.20
2022-08-26T03:50:43.530Z,21.17
2022-08-26T03:53:14.024Z,21.15
2022-08-26T03:55:45.699Z,21.16
2022-08-26T04:27:23.660Z,21.70
2022-08-26T04:29:56.462Z,21.72
2022-08-26T04:32:27.463Z,21.79
2022-08-26T04:34:58.262Z,21.84
2022-08-26T04:37:31.016Z,21.88
2022-08-26T04:40:02.879Z,21.90
2022-08-26T04:42:34.689Z,21.95
2022-08-26T04:45:09.869Z,21.97
2022-08-26T04:47:38.576Z,21.99
2022-08-26T04:50:11.036Z,22.03
2022-08-26T04:52:42.115Z,22.07
2022-08-26T04:55:12.527Z,22.12
2022-08-26T04:57:43.402Z,22.15
2022-08-26T05:00:14.434Z,22.16
2022-08-26T05:02:46.143Z,22.20
2022-08-26T05:05:15.521Z,22.23
2022-08-26T05:07:47.874Z,22.27
2022-08-26T05:10:20.645Z,22.29
2022-08-26T05:12:50.237Z,22.35
2022-08-26T05:15:20.324Z,22.37
2022-08-26T05:17:51.321Z,22.39
2022-08-26T05:20:23.914Z,22.42
2022-08-26T05:22:52.279Z,22.47
2022-08-26T05:25:24.598Z,22.50
2022-08-26T05:27:56.625Z,22.52
2022-08-26T05:30:26.503Z,22.57
2022-08-26T05:32:56.644Z,22.58
2022-08-26T05:35:30.768Z,22.61
2022-08-26T05:38:01.641Z,22.65
2022-08-26T05:40:38.651Z,22.69
2022-08-26T05:43:11.455Z,22.72
2022-08-26T05:45:45.815Z,22.78
2022-08-26T05:48:24.208Z,22.80
2022-08-26T05:50:52.118Z,22.82
2022-08-26T05:53:23.988Z,22.85
2022-08-26T05:55:55.417Z,22.88
2022-08-26T05:58:26.742Z,22.90
2022-08-26T06:01:10.457Z,22.91
2022-08-26T06:03:44.524Z,22.90
2022-08-26T06:06:28.084Z,22.91
2022-08-26T06:08:58.746Z,22.96
2022-08-26T06:11:32.006Z,22.98
2022-08-26T06:14:04.365Z,23.02
2022-08-26T06:16:40.781Z,23.07
2022-08-26T06:19:11.596Z,23.14
2022-08-26T06:21:42.523Z,23.18
2022-08-26T06:24:28.428Z,23.21
2022-08-26T06:27:08.130Z,23.30
2022-08-26T06:29:37.650Z,23.29
2022-08-26T06:32:07.270Z,23.35
2022-08-26T06:34:38.749Z,23.38
2022-08-26T06:37:09.539Z,23.44
2022-08-26T06:39:41.116Z,23.49
2022-08-26T06:42:11.772Z,23.53
2022-08-26T06:44:41.664Z,23.58
2022-08-26T06:47:13.928Z,23.67
2022-08-26T06:49:45.830Z,23.74
2022-08-26T06:52:24.432Z,23.81
2022-08-26T06:54:57.531Z,23.89
2022-08-26T06:57:27.178Z,23.96
2022-08-26T06:59:56.611Z,24.05
2022-08-26T07:02:28.661Z,24.21
2022-08-26T07:04:58.499Z,24.56
2022-08-26T07:07:30.054Z,25.00
2022-08-26T07:10:00.233Z,25.44
2022-08-26T07:12:32.120Z,25.92
2022-08-26T07:15:02.594Z,26.40
2022-08-26T07:17:32.982Z,26.87
2022-08-26T07:20:07.105Z,27.43
2022-08-26T07:22:37.873Z,28.05
2022-08-26T07:25:09.003Z,28.39
2022-08-26T07:27:38.775Z,28.65
2022-08-26T07:30:10.264Z,28.89
2022-08-26T07:32:41.677Z,29.14
2022-08-26T07:35:11.737Z,29.21
2022-08-26T07:37:41.258Z,29.31
2022-08-26T07:40:11.914Z,29.55
2022-08-26T07:42:42.627Z,29.72
2022-08-26T07:45:12.641Z,29.82
2022-08-26T07:47:43.850Z,30.15
2022-08-26T07:50:13.871Z,30.43
2022-08-26T07:52:45.454Z,30.46
2022-08-26T07:55:17.313Z,30.57
2022-08-26T07:57:47.602Z,30.80
2022-08-26T08:00:20.966Z,31.06
2022-08-26T08:02:50.585Z,31.33
2022-08-26T08:05:22.257Z,31.54
2022-08-26T08:08:26.242Z,31.61
2022-08-26T08:10:27.322Z,31.73
2022-08-26T08:12:59.168Z,31.77
2022-08-26T08:15:33.747Z,31.99
2022-08-26T08:18:15.865Z,32.29
2022-08-26T08:20:47.568Z,32.52
2022-08-26T08:23:14.028Z,32.61
2022-08-26T08:25:43.848Z,32.74
2022-08-26T08:28:13.187Z,32.80
2022-08-26T08:30:43.398Z,33.03
2022-08-26T08:33:13.728Z,33.37
2022-08-26T08:35:43.632Z,33.48
2022-08-26T08:38:13.055Z,33.62
2022-08-26T08:40:43.790Z,33.64
2022-08-26T08:43:18.988Z,33.65
2022-08-26T08:45:54.858Z,33.73
2022-08-26T08:48:32.485Z,33.81
2022-08-26T08:51:43.401Z,33.77
2022-08-26T08:54:13.834Z,33.60
2022-08-26T08:56:53.821Z,33.43
2022-08-26T08:59:28.518Z,33.38
2022-08-26T09:02:19.130Z,33.31
2022-08-26T09:05:15.537Z,33.22
2022-08-26T09:08:06.643Z,33.07
2022-08-26T09:10:44.046Z,33.01
2022-08-26T09:13:16.808Z,32.93
2022-08-26T09:15:54.596Z,32.78
2022-08-26T09:18:38.120Z,32.70
2022-08-26T09:21:12.375Z,32.52
2022-08-26T09:23:42.958Z,32.30
2022-08-26T09:26:31.264Z,32.11
2022-08-26T09:29:03.367Z,31.93
2022-08-26T09:31:35.767Z,31.66
2022-08-26T09:34:18.500Z,31.50
2022-08-26T09:36:57.352Z,31.47
2022-08-26T09:39:37.839Z,31.43
2022-08-26T09:42:25.985Z,31.42
2022-08-26T09:45:04.231Z,31.35
2022-08-26T09:47:49.912Z,31.29
2022-08-26T09:50:35.848Z,31.25
2022-08-26T09:53:28.484Z,31.25
2022-08-26T09:56:15.676Z,31.16
2022-08-26T09:58:47.020Z,30.97
2022-08-26T10:01:32.981Z,30.82
2022-08-26T10:04:08.702Z,30.78
2022-08-26T10:06:43.984Z,30.79
2022-08-26T10:09:17.557Z,30.69
2022-08-26T10:11:53.389Z,30.59
2022-08-26T10:14:50.495Z,30.46
2022-08-26T10:17:40.290Z,30.44
2022-08-26T10:20:23.745Z,30.44
2022-08-26T10:23:09.443Z,30.42
2022-08-26T10:25:46.919Z,30.38
2022-08-26T10:28:34.168Z,30.36
2022-08-26T10:31:12.516Z,30.38
2022-08-26T10:33:42.304Z,30.28
2022-08-26T10:36:20.224Z,30.20
2022-08-26T10:38:48.984Z,30.25
2022-08-26T10:41:21.111Z,30.33
2022-08-26T10:43:59.790Z,30.40
2022-08-26T10:46:34.065Z,30.41
2022-08-26T10:49:15.394Z,30.43
2022-08-26T10:52:16.588Z,30.41
2022-08-26T10:54:57.774Z,30.43
2022-08-26T10:58:05.955Z,30.45
2022-08-26T11:00:58.464Z,30.50
2022-08-26T11:03:34.592Z,30.51
2022-08-26T11:06:28.955Z,30.52
2022-08-26T11:09:03.965Z,30.56
2022-08-26T11:11:46.855Z,30.54
2022-08-26T11:14:29.086Z,30.46
2022-08-26T11:16:57.258Z,30.37
2022-08-26T11:20:02.630Z,30.31
2022-08-26T11:22:47.455Z,30.26
2022-08-26T11:25:14.425Z,30.30
2022-08-26T11:27:57.109Z,30.33
2022-08-26T11:30:40.054Z,30.37
2022-08-26T11:33:12.497Z,30.41
2022-08-26T11:35:46.027Z,30.42
2022-08-26T11:38:29.483Z,30.36
2022-08-26T11:41:13.952Z,30.26
2022-08-26T11:43:46.459Z,30.16
2022-08-26T11:46:18.838Z,30.16
2022-08-26T11:48:49.314Z,30.14
2022-08-26T11:51:27.913Z,30.11
2022-08-26T11:54:16.516Z,30.11
2022-08-26T11:56:49.131Z,30.11
2022-08-26T11:59:30.864Z,30.07
2022-08-26T12:02:01.475Z,30.07
2022-08-26T12:04:34.034Z,30.07
2022-08-26T12:07:04.682Z,30.09
2022-08-26T12:09:38.070Z,30.12
2022-08-26T12:12:21.168Z,30.18
2022-08-26T12:15:12.271Z,30.14
2022-08-26T12:17:42.572Z,30.13
2022-08-26T12:23:43.684Z,30.26
2022-08-26T12:26:36.441Z,30.36
2022-08-26T12:29:28.120Z,30.44
2022-08-26T12:32:17.356Z,30.44
2022-08-26T12:34:48.715Z,30.43
2022-08-26T12:37:21.030Z,30.41
2022-08-26T12:39:51.966Z,30.41
2022-08-26T12:42:26.122Z,30.40
2022-08-26T12:45:06.270Z,30.40
2022-08-26T12:47:44.350Z,30.35
2022-08-26T12:50:26.480Z,30.33
2022-08-26T12:53:06.783Z,30.30
2022-08-26T12:55:47.282Z,30.32
2022-08-26T12:58:29.629Z,30.32
2022-08-26T13:01:11.680Z,30.32
2022-08-26T13:03:44.694Z,30.30
2022-08-26T13:06:27.613Z,30.30
2022-08-26T13:09:11.531Z,30.32
2022-08-26T13:11:47.462Z,30.35
2022-08-26T13:14:23.860Z,30.35
2022-08-26T13:16:50.068Z,30.36
2022-08-26T13:19:22.616Z,30.39
2022-08-26T13:21:54.176Z,30.39
2022-08-26T13:24:29.372Z,30.33
2022-08-26T13:26:59.989Z,30.29
2022-08-26T13:29:30.042Z,30.30
2022-08-26T13:31:59.687Z,30.26
2022-08-26T13:34:30.291Z,30.24
2022-08-26T13:36:59.562Z,30.23
2022-08-26T13:39:28.680Z,30.18
2022-08-26T13:41:58.759Z,30.14
2022-08-26T13:44:28.134Z,30.10
2022-08-26T13:46:57.350Z,30.08
2022-08-26T13:49:27.953Z,30.12
2022-08-26T13:51:57.262Z,30.17
2022-08-26T13:54:26.582Z,30.23
2022-08-26T13:56:55.772Z,30.25
2022-08-26T13:59:24.411Z,30.28
2022-08-26T14:01:53.371Z,30.26
2022-08-26T14:04:26.926Z,30.27
2022-08-26T14:06:53.010Z,30.27
2022-08-26T14:09:22.791Z,30.20
2022-08-26T14:11:54.285Z,30.14
2022-08-26T14:14:23.739Z,30.07
2022-08-26T14:16:59.410Z,30.03
2022-08-26T14:19:25.085Z,29.99
2022-08-26T14:21:53.941Z,29.96
2022-08-26T14:24:23.371Z,29.97
2022-08-26T14:26:51.941Z,29.98
2022-08-26T14:29:21.046Z,30.01
2022-08-26T14:31:49.984Z,30.00
2022-08-26T14:34:19.243Z,29.97
2022-08-26T14:36:48.526Z,29.94
2022-08-26T14:39:18.231Z,29.92
2022-08-26T14:41:53.835Z,29.92
2022-08-26T14:44:21.266Z,29.94
2022-08-26T14:46:54.114Z,29.92
2022-08-26T14:49:24.138Z,29.92
2022-08-26T14:51:56.527Z,29.94
2022-08-26T14:54:26.410Z,29.96
2022-08-26T14:57:04.626Z,29.94
2022-08-26T14:59:40.516Z,29.96
2022-08-26T15:02:13.749Z,29.94
2022-08-26T15:04:43.861Z,29.90
2022-08-26T15:07:13.622Z,29.85
2022-08-26T15:09:43.876Z,29.85
2022-08-26T15:12:13.025Z,29.82
2022-08-26T15:14:43.885Z,29.78
2022-08-26T15:17:13.282Z,29.75
2022-08-26T15:19:43.321Z,29.68
2022-08-26T15:22:12.437Z,29.68
2022-08-26T15:24:41.441Z,29.62
2022-08-26T15:27:11.251Z,29.55
2022-08-26T15:29:41.406Z,29.49
2022-08-26T15:32:11.222Z,29.46
2022-08-26T15:34:41.891Z,29.42
2022-08-26T15:37:11.915Z,29.39
2022-08-26T15:39:41.140Z,29.35
2022-08-26T15:42:11.333Z,29.33
2022-08-26T15:44:45.351Z,29.30
2022-08-26T15:47:14.989Z,29.24
2022-08-26T15:49:44.491Z,29.22
2022-08-26T15:52:14.460Z,29.18
2022-08-26T15:54:45.221Z,29.13
2022-08-26T15:57:18.698Z,29.09
2022-08-26T15:59:47.056Z,29.00
2022-08-26T16:02:16.262Z,28.94
2022-08-26T16:04:46.722Z,28.86
2022-08-26T16:07:17.068Z,28.81
2022-08-26T16:09:48.642Z,28.78
2022-08-26T16:12:20.955Z,28.74
2022-08-26T16:14:51.617Z,28.71
2022-08-26T16:17:25.008Z,28.68
2022-08-26T16:19:56.297Z,28.66
2022-08-26T16:22:26.909Z,28.63
2022-08-26T16:24:59.390Z,28.60
2022-08-26T16:27:29.543Z,28.60
2022-08-26T16:29:59.687Z,28.59
2022-08-26T16:32:31.324Z,28.55
2022-08-26T16:35:02.071Z,28.50
2022-08-26T16:37:33.728Z,28.46
2022-08-26T16:40:05.781Z,28.42
2022-08-26T16:42:37.175Z,28.39
2022-08-26T16:45:08.650Z,28.36
2022-08-26T16:47:38.633Z,28.34
2022-08-26T16:50:10.007Z,28.29
2022-08-26T16:52:39.935Z,28.23
2022-08-26T16:55:12.232Z,28.20
2022-08-26T16:57:44.064Z,28.14
2022-08-26T17:00:25.068Z,28.09
2022-08-26T17:02:57.434Z,28.04
2022-08-26T17:05:28.143Z,28.01
2022-08-26T17:07:59.169Z,27.97
2022-08-26T17:10:32.129Z,27.94
2022-08-26T17:13:03.327Z,27.92
2022-08-26T17:15:32.672Z,27.85
2022-08-26T17:18:04.267Z,27.81
2022-08-26T17:20:34.743Z,27.78
2022-08-26T17:23:05.080Z,27.75
2022-08-26T17:25:35.532Z,27.72
2022-08-26T17:28:07.520Z,27.70
2022-08-26T17:30:38.660Z,27.68
2022-08-26T17:33:10.840Z,27.67
2022-08-26T17:35:41.356Z,27.60
2022-08-26T17:38:10.915Z,27.54
2022-08-26T17:40:40.839Z,27.51
2022-08-26T17:43:12.494Z,27.49
2022-08-26T17:45:43.257Z,27.46
2022-08-26T17:48:14.524Z,27.42
2022-08-26T17:50:45.505Z,27.37
2022-08-26T17:53:19.203Z,27.35
2022-08-26T17:55:50.079Z,27.31
2022-08-26T17:58:23.233Z,27.26
2022-08-26T18:00:54.928Z,27.25
2022-08-26T18:03:24.888Z,27.21
2022-08-26T18:06:11.239Z,27.14
2022-08-26T18:08:41.743Z,27.11
2022-08-26T18:11:17.365Z,27.07
2022-08-26T18:13:48.741Z,27.04
2022-08-26T18:16:19.346Z,27.00
2022-08-26T18:18:52.081Z,26.94
2022-08-26T18:21:24.270Z,26.88
2022-08-26T18:23:56.036Z,26.81
2022-08-26T18:26:33.640Z,26.72
2022-08-26T18:29:04.299Z,26.67
2022-08-26T18:31:37.435Z,26.64
2022-08-26T18:34:07.500Z,26.61
2022-08-26T18:36:37.297Z,26.58
2022-08-26T18:39:08.139Z,26.56
2022-08-26T18:41:47.231Z,26.54
2022-08-26T18:44:18.540Z,26.51
2022-08-26T18:46:50.265Z,26.51
2022-08-26T18:49:20.846Z,26.50
2022-08-26T18:51:52.495Z,26.48
2022-08-26T18:54:22.300Z,26.49
2022-08-26T18:56:52.322Z,26.49
2022-08-26T18:59:26.755Z,26.48
2022-08-26T19:01:54.566Z,26.50
2022-08-26T19:04:24.936Z,26.49
2022-08-26T19:06:54.704Z,26.47
2022-08-26T19:09:26.453Z,26.45
2022-08-26T19:11:58.304Z,26.44
2022-08-26T19:14:28.542Z,26.42
2022-08-26T19:16:58.273Z,26.41
2022-08-26T19:19:28.492Z,26.40
2022-08-26T19:21:59.374Z,26.36
2022-08-26T19:24:28.689Z,26.30
2022-08-26T19:27:00.910Z,26.29
2022-08-26T19:29:35.164Z,26.27
2022-08-26T19:32:05.319Z,26.22
2022-08-26T19:34:37.266Z,26.18
2022-08-26T19:37:07.920Z,26.16
2022-08-26T19:39:38.985Z,26.14
2022-08-26T19:42:11.020Z,26.12
2022-08-26T19:45:00.946Z,26.11
2022-08-26T19:47:31.746Z,26.10
2022-08-26T19:50:02.837Z,26.06
2022-08-26T19:52:34.335Z,26.04
2022-08-26T19:55:04.284Z,26.04
2022-08-26T19:57:35.453Z,26.01
2022-08-26T20:00:10.168Z,26.00
2022-08-26T20:02:40.728Z,25.99
2022-08-26T20:05:11.708Z,25.97
2022-08-26T20:07:43.400Z,25.97
2022-08-26T20:10:14.132Z,25.96
2022-08-26T20:12:46.038Z,25.94
2022-08-26T20:15:16.475Z,25.92
2022-08-26T20:17:47.334Z,25.91
2022-08-26T20:20:37.659Z,25.89
2022-08-26T20:23:08.567Z,25.88
2022-08-26T20:25:40.930Z,25.87
2022-08-26T20:28:11.998Z,25.86
2022-08-26T20:30:42.839Z,25.85
2022-08-26T20:33:13.816Z,25.85
2022-08-26T20:35:44.142Z,25.84
2022-08-26T20:38:14.636Z,25.81
2022-08-26T20:40:46.595Z,25.78
2022-08-26T20:43:16.417Z,25.72
2022-08-26T20:45:46.914Z,25.64
2022-08-26T20:48:17.481Z,25.56
2022-08-26T20:50:48.306Z,25.51
2022-08-26T20:53:18.019Z,25.44
2022-08-26T20:55:47.319Z,25.37
2022-08-26T20:58:17.637Z,25.34
2022-08-26T21:00:47.732Z,25.30
2022-08-26T21:03:17.603Z,25.25
2022-08-26T21:05:47.514Z,25.22
2022-08-26T21:08:18.923Z,25.12
2022-08-26T21:10:50.662Z,25.03
2022-08-26T21:13:22.166Z,25.03
2022-08-26T21:15:51.016Z,25.01
2022-08-26T21:18:20.900Z,24.98
2022-08-26T21:20:52.306Z,24.95
2022-08-26T21:23:23.770Z,24.88
2022-08-26T21:25:53.978Z,24.86
2022-08-26T21:28:24.152Z,24.84
2022-08-26T21:30:53.767Z,24.82
2022-08-26T21:33:31.610Z,24.79
2022-08-26T21:36:02.218Z,24.78
2022-08-26T21:38:33.500Z,24.78
2022-08-26T21:41:07.369Z,24.77
2022-08-26T21:43:40.015Z,24.78
2022-08-26T21:46:14.081Z,24.76
2022-08-26T21:48:51.230Z,24.74
2022-08-26T21:51:22.938Z,24.71
2022-08-26T21:53:53.348Z,24.65
2022-08-26T21:56:23.888Z,24.62
2022-08-26T21:58:56.895Z,24.59
2022-08-26T22:01:31.617Z,24.58
2022-08-26T22:04:06.264Z,24.58
2022-08-26T22:06:45.789Z,24.57
2022-08-26T22:09:18.320Z,24.58
2022-08-26T22:11:48.766Z,24.55
2022-08-26T22:14:20.847Z,24.54
2022-08-26T22:16:51.100Z,24.52
2022-08-26T22:19:23.602Z,24.51
2022-08-26T22:21:54.999Z,24.51
2022-08-26T22:24:25.277Z,24.51
2022-08-26T22:26:55.524Z,24.49
2022-08-26T22:29:26.893Z,24.48
2022-08-26T22:31:57.002Z,24.47
2022-08-26T22:34:27.264Z,24.42
2022-08-26T22:36:57.453Z,24.41
2022-08-26T22:39:27.380Z,24.35
2022-08-26T22:41:57.141Z,24.31
2022-08-26T22:44:27.108Z,24.26
2022-08-26T22:46:59.304Z,24.21
2022-08-26T22:49:28.721Z,24.12
2022-08-26T22:51:59.129Z,24.04
2022-08-26T22:54:29.845Z,23.98
2022-08-26T22:57:00.538Z,23.95
2022-08-26T22:59:30.977Z,23.95
2022-08-26T23:02:01.547Z,23.94
2022-08-26T23:04:30.674Z,23.96
2022-08-26T23:07:10.932Z,23.95
2022-08-26T23:09:41.475Z,23.92
2022-08-26T23:12:12.130Z,23.91
2022-08-26T23:14:43.992Z,23.92
2022-08-26T23:17:17.162Z,23.94
2022-08-26T23:19:46.859Z,23.92
2022-08-26T23:22:17.329Z,23.87
2022-08-26T23:24:47.782Z,23.81
2022-08-26T23:27:18.491Z,23.78
2022-08-26T23:29:48.409Z,23.78
2022-08-26T23:32:17.571Z,23.77
2022-08-26T23:34:56.999Z,23.76
2022-08-26T23:37:28.992Z,23.73
2022-08-26T23:40:01.721Z,23.70
2022-08-26T23:42:35.837Z,23.67
2022-08-26T23:45:10.185Z,23.67
2022-08-26T23:47:41.145Z,23.69
2022-08-26T23:50:11.578Z,23.68
2022-08-26T23:53:00.550Z,23.67
2022-08-26T23:55:31.399Z,23.64
2022-08-26T23:58:01.105Z,23.63
